createdAt,value
2024-01-15T00:00:48.075Z,1.00
2024-01-15T00:01:50.118Z,1.00
2024-01-15T00:02:53.104Z,1.00
2024-01-15T00:03:54.963Z,1.00
2024-01-15T00:04:59.410Z,1.00
2024-01-15T00:06:01.731Z,1.00
2024-01-15T00:07:03.749Z,1.00
2024-01-15T00:08:06.013Z,1.00
2024-01-15T00:09:12.099Z,1.00
2024-01-15T00:10:13.865Z,1.00
2024-01-15T00:11:15.521Z,1.00
2024-01-15T00:12:17.210Z,1.00
2024-01-15T00:13:19.057Z,1.00
2024-01-15T00:14:21.561Z,1.00
2024-01-15T00:15:23.555Z,1.00
2024-01-15T00:16:27.567Z,1.00
2024-01-15T00:17:29.367Z,1.00
2024-01-15T00:18:31.185Z,1.00
2024-01-15T00:19:33.674Z,1.00
2024-01-15T00:20:35.763Z,1.00
2024-01-15T00:21:37.507Z,1.00
2024-01-15T00:22:39.480Z,1.00
2024-01-15T00:23:45.592Z,1.00
2024-01-15T00:24:47.639Z,1.00
2024-01-15T00:25:49.482Z,1.00
2024-01-15T00:26:51.177Z,1.00
2024-01-15T00:27:53.004Z,1.00
2024-01-15T00:28:54.799Z,1.00
2024-01-15T00:30:02.487Z,1.00
2024-01-15T00:31:05.696Z,1.00
2024-01-15T00:32:07.646Z,1.00
2024-01-15T00:33:09.900Z,1.00
2024-01-15T00:34:11.861Z,1.00
2024-01-15T00:35:13.657Z,1.00
2024-01-15T00:36:16.185Z,1.00
2024-01-15T00:37:17.928Z,1.00
2024-01-15T00:38:19.656Z,1.00
2024-01-15T00:39:21.811Z,1.00
2024-01-15T00:40:23.519Z,1.00
2024-01-15T00:41:32.936Z,1.00
2024-01-15T00:42:35.347Z,1.00
2024-01-15T00:43:42.277Z,1.00
2024-01-15T00:44:44.073Z,1.00
2024-01-15T00:45:48.919Z,1.00
2024-01-15T00:46:50.719Z,1.00
2024-01-15T00:47:52.518Z,1.00
2024-01-15T00:48:57.292Z,1.00
2024-01-15T00:50:05.519Z,1.00
2024-01-15T00:51:10.248Z,1.00
2024-01-15T00:52:12.010Z,1.00
2024-01-15T00:53:13.906Z,1.00
2024-01-15T00:54:15.763Z,1.00
2024-01-15T00:55:20.095Z,1.00
2024-01-15T00:56:21.805Z,1.00
2024-01-15T00:57:26.240Z,1.00
2024-01-15T00:58:28.321Z,1.00
2024-01-15T00:59:30.098Z,1.00
2024-01-15T01:00:34.086Z,1.00
2024-01-15T01:01:36.149Z,1.00
2024-01-15T01:02:37.873Z,1.00
2024-01-15T01:03:39.974Z,1.00
2024-01-15T01:04:42.093Z,1.00
2024-01-15T01:05:45.350Z,1.00
2024-01-15T01:06:53.505Z,1.00
2024-01-15T01:07:55.477Z,1.00
2024-01-15T01:08:57.596Z,1.00
2024-01-15T01:09:59.322Z,1.00
2024-01-15T01:11:01.918Z,1.00
2024-01-15T01:12:06.610Z,1.00
2024-01-15T01:13:08.353Z,1.00
2024-01-15T01:14:11.865Z,1.00
2024-01-15T01:15:15.457Z,1.00
2024-01-15T01:16:17.500Z,1.00
2024-01-15T01:17:19.195Z,1.00
2024-01-15T01:18:25.898Z,1.00
2024-01-15T01:19:28.322Z,1.00
2024-01-15T01:20:32.935Z,1.00
2024-01-15T01:21:35.295Z,1.00
2024-01-15T01:22:43.960Z,1.00
2024-01-15T01:23:45.901Z,1.00
2024-01-15T01:24:47.655Z,1.00
2024-01-15T01:25:54.609Z,1.00
2024-01-15T01:26:56.367Z,1.00
2024-01-15T01:28:00.811Z,1.00
2024-01-15T01:29:06.838Z,1.00
2024-01-15T01:30:11.185Z,1.00
2024-01-15T01:31:13.269Z,1.00
2024-01-15T01:32:15.069Z,1.00
2024-01-15T01:33:17.182Z,1.00
2024-01-15T01:34:20.423Z,1.00
2024-01-15T01:35:24.163Z,1.00
2024-01-15T01:36:28.623Z,1.00
2024-01-15T01:37:30.428Z,1.00
2024-01-15T01:38:34.230Z,1.00
2024-01-15T01:39:36.070Z,1.00
2024-01-15T01:40:38.437Z,1.00
2024-01-15T01:41:41.046Z,1.00
2024-01-15T01:42:48.384Z,1.00
2024-01-15T01:43:50.195Z,1.00
2024-01-15T01:44:57.802Z,1.00
2024-01-15T01:46:03.774Z,1.00
2024-01-15T01:47:06.727Z,1.00
2024-01-15T01:48:09.117Z,1.00
2024-01-15T01:49:14.027Z,1.00
2024-01-15T01:50:16.106Z,1.00
2024-01-15T01:51:28.076Z,1.00
2024-01-15T01:52:37.358Z,1.00
2024-01-15T01:53:39.760Z,1.00
2024-01-15T01:54:51.250Z,1.00
2024-01-15T01:55:58.599Z,1.00
2024-01-15T01:57:03.048Z,1.00
2024-01-15T01:58:09.053Z,1.00
2024-01-15T01:59:12.418Z,1.00
2024-01-15T02:00:27.188Z,1.00
2024-01-15T02:01:29.305Z,1.00
2024-01-15T02:02:36.197Z,1.00
2024-01-15T02:03:43.537Z,1.00
2024-01-15T02:04:53.046Z,1.00
2024-01-15T02:06:08.647Z,1.00
2024-01-15T02:07:21.354Z,99.90
2024-01-15T02:08:25.916Z,99.90
2024-01-15T02:09:27.735Z,99.90
2024-01-15T02:10:29.693Z,99.90
2024-01-15T02:11:32.264Z,99.90
2024-01-15T02:12:35.701Z,99.90
2024-01-15T02:13:39.568Z,99.90
2024-01-15T02:14:41.912Z,99.90
2024-01-15T02:15:52.102Z,91.60
2024-01-15T02:17:02.793Z,1.00
2024-01-15T02:18:13.854Z,1.00
2024-01-15T02:19:21.330Z,1.00
2024-01-15T02:20:34.457Z,1.00
2024-01-15T02:21:36.334Z,1.00
2024-01-15T02:22:38.377Z,99.90
2024-01-15T02:23:43.300Z,99.90
2024-01-15T02:24:56.604Z,99.90
2024-01-15T02:26:06.911Z,99.90
2024-01-15T02:27:25.124Z,99.90
2024-01-15T02:28:29.744Z,99.90
2024-01-15T02:29:37.054Z,1.00
2024-01-15T02:30:44.589Z,1.00
2024-01-15T02:31:46.835Z,1.00
2024-01-15T02:32:50.535Z,1.00
2024-01-15T02:33:52.577Z,1.00
2024-01-15T02:34:54.388Z,1.00
2024-01-15T02:36:00.381Z,1.00
2024-01-15T02:37:12.832Z,1.00
2024-01-15T02:38:17.623Z,1.00
2024-01-15T02:39:35.276Z,1.00
2024-01-15T02:40:41.876Z,99.90
2024-01-15T02:41:46.421Z,99.90
2024-01-15T02:42:48.138Z,1.00
2024-01-15T02:43:50.226Z,18.50
2024-01-15T02:44:53.920Z,99.90
2024-01-15T02:45:57.933Z,10.90
2024-01-15T02:47:00.995Z,1.00
2024-01-15T02:48:05.620Z,1.00
2024-01-15T02:49:07.494Z,1.00
2024-01-15T02:50:09.583Z,1.00
2024-01-15T02:51:15.009Z,1.00
2024-01-15T02:52:22.928Z,1.00
2024-01-15T02:53:28.850Z,99.90
2024-01-15T02:54:30.783Z,99.90
2024-01-15T02:55:40.248Z,42.60
2024-01-15T02:56:42.127Z,99.90
2024-01-15T02:57:46.925Z,99.90
2024-01-15T02:58:58.044Z,1.00
2024-01-15T03:00:02.559Z,1.00
2024-01-15T03:01:04.742Z,1.00
2024-01-15T03:02:06.744Z,1.00
2024-01-15T03:03:14.262Z,1.00
2024-01-15T03:04:19.145Z,1.00
2024-01-15T03:05:31.727Z,1.00
2024-01-15T03:06:36.053Z,1.00
2024-01-15T03:07:42.902Z,1.00
2024-01-15T03:08:45.391Z,99.90
2024-01-15T03:09:56.016Z,99.90
2024-01-15T03:10:59.093Z,1.00
2024-01-15T03:12:06.209Z,99.90
2024-01-15T03:13:08.342Z,1.00
2024-01-15T03:14:13.570Z,87.10
2024-01-15T03:15:15.502Z,99.90
2024-01-15T03:16:21.209Z,1.00
2024-01-15T03:17:22.968Z,99.90
2024-01-15T03:18:25.114Z,99.90
2024-01-15T03:19:31.689Z,99.90
2024-01-15T03:20:33.935Z,44.80
2024-01-15T03:21:35.747Z,87.90
2024-01-15T03:22:37.546Z,99.90
2024-01-15T03:23:39.242Z,99.90
2024-01-15T03:24:41.087Z,1.00
2024-01-15T03:25:43.023Z,1.00
2024-01-15T03:26:44.835Z,1.00
2024-01-15T03:27:48.709Z,1.00
2024-01-15T03:28:50.595Z,1.00
2024-01-15T03:29:52.422Z,1.00
2024-01-15T03:31:00.740Z,1.00
2024-01-15T03:32:04.597Z,1.00
2024-01-15T03:33:09.092Z,1.00
2024-01-15T03:34:11.256Z,1.00
2024-01-15T03:35:12.975Z,1.00
2024-01-15T03:36:14.809Z,1.00
2024-01-15T03:37:19.705Z,1.00
2024-01-15T03:38:23.925Z,1.00
2024-01-15T03:39:25.897Z,99.90
2024-01-15T03:40:30.402Z,1.00
2024-01-15T03:41:41.998Z,1.00
2024-01-15T03:42:43.733Z,1.00
2024-01-15T03:43:45.476Z,1.00
2024-01-15T03:44:50.227Z,1.00
2024-01-15T03:45:54.728Z,1.00
2024-01-15T03:47:16.771Z,1.00
2024-01-15T03:48:20.961Z,1.00
2024-01-15T03:49:25.286Z,1.00
2024-01-15T03:50:29.615Z,1.00
2024-01-15T03:51:45.271Z,1.00
2024-01-15T03:52:50.036Z,1.00
2024-01-15T03:53:56.502Z,1.00
2024-01-15T03:55:04.446Z,1.00
2024-01-15T03:56:19.818Z,1.00
2024-01-15T03:57:21.498Z,99.90
2024-01-15T03:58:23.411Z,1.00
2024-01-15T03:59:30.430Z,1.00
2024-01-15T04:00:34.513Z,1.00
2024-01-15T04:01:36.329Z,1.00
2024-01-15T04:02:40.434Z,1.00
2024-01-15T04:03:53.915Z,1.00
2024-01-15T04:04:55.809Z,1.00
2024-01-15T04:06:00.808Z,1.00
2024-01-15T04:07:02.639Z,1.00
2024-01-15T04:08:10.411Z,1.00
2024-01-15T04:09:20.847Z,1.00
2024-01-15T04:10:22.780Z,99.90
2024-01-15T04:11:24.850Z,1.00
2024-01-15T04:12:30.560Z,99.90
2024-01-15T04:13:35.282Z,1.00
2024-01-15T04:14:47.249Z,1.00
2024-01-15T04:15:49.377Z,1.00
2024-01-15T04:16:51.469Z,1.00
2024-01-15T04:17:53.596Z,1.00
2024-01-15T04:19:01.270Z,1.00
2024-01-15T04:20:06.338Z,1.00
2024-01-15T04:21:08.957Z,99.90
2024-01-15T04:22:16.829Z,99.90
2024-01-15T04:23:18.596Z,99.90
2024-01-15T04:24:20.417Z,99.90
2024-01-15T04:25:22.234Z,99.90
2024-01-15T04:26:28.731Z,1.00
2024-01-15T04:27:30.830Z,1.00
2024-01-15T04:28:32.609Z,99.90
2024-01-15T04:29:42.794Z,1.00
2024-01-15T04:30:54.005Z,1.00
2024-01-15T04:31:56.553Z,65.30
2024-01-15T04:33:00.857Z,93.80
2024-01-15T04:34:02.830Z,1.00
2024-01-15T04:35:15.229Z,1.00
2024-01-15T04:36:18.984Z,1.00
2024-01-15T04:37:21.143Z,1.00
2024-01-15T04:38:25.581Z,1.00
2024-01-15T04:39:30.885Z,1.00
2024-01-15T04:40:33.582Z,1.00
2024-01-15T04:41:37.983Z,1.00
2024-01-15T04:42:42.789Z,99.90
2024-01-15T04:43:44.671Z,99.90
2024-01-15T04:45:01.791Z,1.00
2024-01-15T04:46:04.357Z,1.00
2024-01-15T04:47:06.138Z,1.00
2024-01-15T04:48:08.024Z,1.00
2024-01-15T04:49:09.972Z,1.00
2024-01-15T04:50:12.287Z,1.00
2024-01-15T04:51:14.108Z,1.00
2024-01-15T04:52:16.259Z,1.00
2024-01-15T04:53:18.005Z,1.00
2024-01-15T04:54:20.141Z,1.00
2024-01-15T04:55:26.692Z,1.00
2024-01-15T04:56:39.697Z,1.00
2024-01-15T04:57:45.530Z,99.90
2024-01-15T04:58:47.722Z,1.00
2024-01-15T04:59:49.623Z,1.00
2024-01-15T05:00:59.450Z,1.00
2024-01-15T05:02:01.204Z,1.00
2024-01-15T05:03:16.545Z,1.00
2024-01-15T05:04:20.916Z,1.00
2024-01-15T05:05:29.936Z,90.90
2024-01-15T05:06:31.795Z,99.90
2024-01-15T05:07:37.624Z,99.90
2024-01-15T05:08:43.573Z,99.90
2024-01-15T05:09:45.282Z,99.90
2024-01-15T05:10:54.289Z,99.90
2024-01-15T05:11:55.999Z,99.90
2024-01-15T05:12:59.899Z,99.90
2024-01-15T05:14:01.739Z,99.90
2024-01-15T05:15:04.558Z,1.00
2024-01-15T05:16:11.375Z,1.00
2024-01-15T05:17:18.846Z,99.90
2024-01-15T05:18:20.964Z,99.90
2024-01-15T05:19:22.946Z,99.90
2024-01-15T05:20:24.775Z,99.90
2024-01-15T05:21:30.857Z,92.70
2024-01-15T05:22:38.092Z,29.00
2024-01-15T05:23:39.915Z,65.60
2024-01-15T05:24:41.614Z,1.00
2024-01-15T05:25:44.711Z,1.00
2024-01-15T05:26:46.439Z,99.90
2024-01-15T05:27:55.587Z,99.90
2024-01-15T05:29:00.800Z,99.90
2024-01-15T05:30:14.460Z,99.90
2024-01-15T05:31:23.955Z,1.00
2024-01-15T05:32:25.672Z,1.00
2024-01-15T05:33:27.527Z,1.00
2024-01-15T05:34:29.441Z,1.00
2024-01-15T05:35:34.574Z,22.20
2024-01-15T05:36:42.012Z,27.50
2024-01-15T05:37:49.391Z,62.00
2024-01-15T05:38:51.194Z,99.90
2024-01-15T05:39:54.345Z,99.90
2024-01-15T05:40:56.170Z,99.90
2024-01-15T05:41:59.153Z,99.90
2024-01-15T05:43:00.884Z,99.90
2024-01-15T05:44:07.088Z,99.90
2024-01-15T05:45:09.215Z,99.90
2024-01-15T05:46:13.105Z,99.90
2024-01-15T05:47:14.874Z,99.90
2024-01-15T05:48:16.720Z,99.90
2024-01-15T05:49:18.756Z,99.90
2024-01-15T05:50:32.764Z,99.90
2024-01-15T05:51:34.506Z,99.90
2024-01-15T05:52:36.376Z,99.90
2024-01-15T05:53:41.389Z,1.00
2024-01-15T05:54:45.248Z,1.00
2024-01-15T05:55:47.038Z,1.00
2024-01-15T05:57:00.420Z,1.00
2024-01-15T05:58:02.171Z,1.00
2024-01-15T05:59:03.855Z,1.00
2024-01-15T06:00:06.566Z,1.00
2024-01-15T06:01:08.395Z,1.00
2024-01-15T06:02:10.292Z,1.00
2024-01-15T06:03:12.108Z,1.00
2024-01-15T06:04:14.121Z,1.00
2024-01-15T06:05:16.112Z,1.00
2024-01-15T06:06:17.962Z,1.00
2024-01-15T06:07:19.736Z,1.00
2024-01-15T06:08:28.873Z,99.90
2024-01-15T06:09:40.869Z,99.90
2024-01-15T06:10:51.748Z,99.90
2024-01-15T06:11:53.744Z,99.90
2024-01-15T06:13:03.190Z,99.90
2024-01-15T06:14:10.860Z,99.90
2024-01-15T06:15:13.649Z,99.90
2024-01-15T06:16:17.653Z,99.90
2024-01-15T06:17:19.986Z,99.90
2024-01-15T06:18:25.110Z,99.90
2024-01-15T06:19:27.289Z,99.90
2024-01-15T06:20:30.703Z,99.90
2024-01-15T06:21:34.091Z,99.90
2024-01-15T06:22:45.171Z,49.50
2024-01-15T06:23:46.966Z,1.00
2024-01-15T06:24:52.727Z,1.00
2024-01-15T06:25:58.011Z,1.00
2024-01-15T06:27:00.077Z,1.00
2024-01-15T06:28:01.878Z,1.00
2024-01-15T06:29:14.265Z,1.00
2024-01-15T06:30:20.755Z,1.00
2024-01-15T06:31:23.247Z,1.00
2024-01-15T06:32:26.406Z,1.00
2024-01-15T06:33:30.618Z,1.00
2024-01-15T06:36:05.433Z,21.40
2024-01-15T06:37:12.862Z,80.90
2024-01-15T06:38:24.731Z,99.90
2024-01-15T06:39:31.833Z,99.90
2024-01-15T06:40:49.058Z,99.90
2024-01-15T06:42:06.386Z,99.90
2024-01-15T06:43:08.076Z,99.90
2024-01-15T06:44:19.890Z,99.90
2024-01-15T06:45:23.408Z,99.90
2024-01-15T06:46:31.054Z,99.90
2024-01-15T06:47:33.805Z,99.90
2024-01-15T06:48:43.562Z,99.90
2024-01-15T06:49:52.018Z,99.90
2024-01-15T06:51:05.296Z,99.90
2024-01-15T06:52:07.671Z,99.90
2024-01-15T06:53:19.855Z,99.90
2024-01-15T06:54:21.548Z,99.90
2024-01-15T06:55:23.298Z,99.90
2024-01-15T06:56:25.248Z,99.90
2024-01-15T06:57:27.169Z,99.90
2024-01-15T06:58:28.994Z,99.90
2024-01-15T06:59:33.267Z,99.90
2024-01-15T07:00:40.194Z,99.90
2024-01-15T07:01:44.791Z,1.00
2024-01-15T07:02:47.192Z,1.00
2024-01-15T07:03:49.175Z,1.00
2024-01-15T07:04:50.960Z,1.00
2024-01-15T07:05:52.797Z,1.00
2024-01-15T07:06:54.500Z,1.00
2024-01-15T07:07:56.818Z,1.00
2024-01-15T07:08:58.729Z,1.00
2024-01-15T07:10:00.340Z,1.00
2024-01-15T07:11:05.067Z,1.00
2024-01-15T07:12:06.803Z,1.00
2024-01-15T07:13:08.697Z,1.00
2024-01-15T07:14:10.353Z,1.00
2024-01-15T07:15:12.159Z,1.00
2024-01-15T07:16:16.530Z,1.00
2024-01-15T07:17:21.928Z,1.00
2024-01-15T07:18:25.280Z,1.00
2024-01-15T07:19:27.837Z,1.00
2024-01-15T07:20:29.590Z,1.00
2024-01-15T07:21:31.767Z,1.00
2024-01-15T07:22:35.726Z,1.00
2024-01-15T07:23:37.715Z,1.00
2024-01-15T07:24:39.503Z,1.00
2024-01-15T07:25:41.444Z,1.00
2024-01-15T07:26:43.288Z,1.00
2024-01-15T07:27:59.602Z,1.00
2024-01-15T07:29:01.612Z,1.00
2024-01-15T07:30:05.594Z,1.00
2024-01-15T07:31:11.800Z,1.00
2024-01-15T07:32:18.076Z,1.00
2024-01-15T07:33:20.422Z,1.00
2024-01-15T07:34:23.508Z,1.00
2024-01-15T07:35:26.746Z,1.00
2024-01-15T07:36:29.153Z,1.00
2024-01-15T07:37:32.145Z,1.00
2024-01-15T07:38:34.445Z,1.00
2024-01-15T07:39:48.330Z,1.00
2024-01-15T07:40:53.648Z,1.00
2024-01-15T07:42:13.574Z,1.00
2024-01-15T07:43:29.998Z,1.00
2024-01-15T07:44:44.085Z,1.00
2024-01-15T07:47:19.273Z,1.00
2024-01-15T07:48:22.040Z,1.00
2024-01-15T07:49:35.523Z,1.00
2024-01-15T07:50:37.386Z,1.00
2024-01-15T07:51:41.993Z,1.00
2024-01-15T07:52:50.110Z,1.00
2024-01-15T07:55:03.387Z,1.00
2024-01-15T07:56:05.335Z,1.00
2024-01-15T07:57:07.088Z,1.00
2024-01-15T07:58:15.863Z,1.00
2024-01-15T07:59:19.395Z,1.00
2024-01-15T08:00:22.467Z,1.00
2024-01-15T08:01:24.363Z,1.00
2024-01-15T08:02:26.283Z,1.00
2024-01-15T08:03:28.635Z,1.00
2024-01-15T08:04:38.486Z,1.00
2024-01-15T08:05:40.294Z,1.00
2024-01-15T08:06:42.352Z,1.00
2024-01-15T08:07:46.724Z,1.00
2024-01-15T08:08:48.527Z,1.00
2024-01-15T08:09:50.425Z,1.00
2024-01-15T08:10:56.799Z,1.00
2024-01-15T08:11:59.634Z,1.00
2024-01-15T08:13:01.482Z,1.00
2024-01-15T08:14:03.484Z,1.00
2024-01-15T08:15:06.253Z,1.00
2024-01-15T08:16:08.361Z,1.00
2024-01-15T08:17:10.209Z,1.00
2024-01-15T08:18:12.019Z,1.00
2024-01-15T08:19:22.648Z,1.00
2024-01-15T08:20:24.712Z,1.00
2024-01-15T08:21:32.398Z,1.00
2024-01-15T08:22:34.392Z,1.00
2024-01-15T08:23:36.710Z,1.00
2024-01-15T08:24:38.785Z,1.00
2024-01-15T08:25:49.618Z,1.00
2024-01-15T08:26:52.851Z,1.00
2024-01-15T08:27:54.719Z,1.00
2024-01-15T08:28:56.547Z,1.00
2024-01-15T08:30:01.347Z,1.00
2024-01-15T08:32:20.338Z,1.00
2024-01-15T08:33:22.794Z,1.00
2024-01-15T08:34:24.882Z,1.00
2024-01-15T08:35:27.318Z,1.00
2024-01-15T08:36:33.752Z,1.00
2024-01-15T08:37:36.344Z,1.00
2024-01-15T08:38:38.318Z,1.00
2024-01-15T08:39:41.018Z,1.00
2024-01-15T08:40:42.826Z,1.00
2024-01-15T08:41:44.675Z,1.00
2024-01-15T08:43:09.395Z,1.00
2024-01-15T08:44:11.299Z,1.00
2024-01-15T08:45:13.638Z,1.00
2024-01-15T08:46:15.362Z,1.00
2024-01-15T08:47:17.508Z,1.00
2024-01-15T08:48:19.407Z,1.00
2024-01-15T08:49:21.656Z,1.00
2024-01-15T08:50:23.434Z,1.00
2024-01-15T08:51:25.287Z,1.00
2024-01-15T08:52:27.045Z,1.00
2024-01-15T08:53:29.115Z,1.00
2024-01-15T08:54:30.868Z,1.00
2024-01-15T08:55:32.626Z,1.00
2024-01-15T08:56:34.525Z,1.00
2024-01-15T08:57:36.217Z,1.00
2024-01-15T08:58:37.863Z,1.00
2024-01-15T08:59:39.944Z,1.00
2024-01-15T09:00:41.695Z,1.00
2024-01-15T09:01:43.470Z,1.00
2024-01-15T09:02:45.393Z,1.00
2024-01-15T09:03:47.802Z,1.00
2024-01-15T09:04:49.526Z,1.00
2024-01-15T09:05:52.337Z,1.00
2024-01-15T09:06:54.417Z,1.00
2024-01-15T09:07:56.628Z,1.00
2024-01-15T09:08:58.397Z,1.00
2024-01-15T09:10:00.636Z,1.00
2024-01-15T09:11:04.027Z,1.00
2024-01-15T09:12:06.054Z,1.00
2024-01-15T09:13:07.693Z,1.00
2024-01-15T09:14:10.296Z,1.00
2024-01-15T09:15:12.037Z,1.00
2024-01-15T09:16:13.810Z,1.00
2024-01-15T09:17:15.566Z,1.00
2024-01-15T09:18:17.258Z,1.00
2024-01-15T09:19:19.097Z,1.00
2024-01-15T09:20:20.905Z,1.00
2024-01-15T09:21:23.156Z,1.00
2024-01-15T09:22:27.483Z,1.00
2024-01-15T09:23:30.022Z,1.00
2024-01-15T09:24:33.810Z,1.00
2024-01-15T09:25:35.767Z,1.00
2024-01-15T09:26:37.438Z,1.00
2024-01-15T09:27:39.365Z,1.00
2024-01-15T09:28:41.097Z,1.00
2024-01-15T09:29:46.609Z,1.00
2024-01-15T09:30:48.637Z,1.00
2024-01-15T09:31:51.515Z,1.00
2024-01-15T09:32:54.814Z,1.00
2024-01-15T09:33:59.911Z,1.00
2024-01-15T09:35:01.712Z,1.00
2024-01-15T09:36:06.383Z,1.00
2024-01-15T09:37:14.758Z,1.00
2024-01-15T09:38:21.501Z,1.00
2024-01-15T09:39:24.445Z,1.00
2024-01-15T09:42:31.999Z,1.00
2024-01-15T09:43:34.733Z,1.00
2024-01-15T09:44:37.369Z,1.00
2024-01-15T09:45:40.877Z,1.00
2024-01-15T09:46:44.202Z,1.00
2024-01-15T09:47:47.126Z,1.00
2024-01-15T09:48:49.069Z,1.00
2024-01-15T09:49:50.963Z,1.00
2024-01-15T09:50:54.116Z,1.00
2024-01-15T09:52:08.913Z,1.00
2024-01-15T09:53:16.310Z,1.00
2024-01-15T09:54:18.513Z,1.00
2024-01-15T09:55:20.523Z,1.00
2024-01-15T09:56:22.529Z,1.00
2024-01-15T09:57:24.516Z,1.00
2024-01-15T09:58:26.533Z,1.00
2024-01-15T09:59:29.526Z,1.00
2024-01-15T10:00:34.191Z,1.00
2024-01-15T10:01:51.610Z,1.00
2024-01-15T10:02:55.505Z,1.00
2024-01-15T10:03:57.573Z,1.00
2024-01-15T10:04:59.794Z,1.00
2024-01-15T10:06:03.280Z,1.00
2024-01-15T10:07:07.555Z,1.00
2024-01-15T10:08:11.499Z,1.00
2024-01-15T10:09:15.781Z,1.00
2024-01-15T10:10:17.697Z,1.00
2024-01-15T10:11:19.572Z,1.00
2024-01-15T10:12:23.750Z,1.00
2024-01-15T10:13:25.782Z,1.00
2024-01-15T10:14:27.431Z,1.00
2024-01-15T10:15:29.348Z,1.00
2024-01-15T10:16:31.721Z,1.00
2024-01-15T10:17:33.577Z,1.00
2024-01-15T10:18:35.404Z,1.00
2024-01-15T10:19:37.179Z,1.00
2024-01-15T10:20:39.031Z,1.00
2024-01-15T10:21:40.737Z,1.00
2024-01-15T10:22:47.905Z,1.00
2024-01-15T10:23:50.580Z,1.00
2024-01-15T10:24:53.031Z,1.00
2024-01-15T10:25:54.929Z,1.00
2024-01-15T10:27:07.166Z,1.00
2024-01-15T10:28:09.137Z,1.00
2024-01-15T10:29:11.939Z,1.00
2024-01-15T10:30:15.839Z,1.00
2024-01-15T10:31:20.654Z,1.00
2024-01-15T10:32:25.209Z,1.00
2024-01-15T10:33:27.826Z,1.00
2024-01-15T10:34:31.596Z,1.00
2024-01-15T10:35:34.982Z,1.00
2024-01-15T10:36:36.859Z,1.00
2024-01-15T10:37:38.509Z,1.00
2024-01-15T10:38:40.155Z,1.00
2024-01-15T10:39:41.895Z,1.00
2024-01-15T10:40:43.811Z,1.00
2024-01-15T10:41:45.673Z,1.00
2024-01-15T10:42:48.642Z,1.00
2024-01-15T10:43:50.383Z,1.00
2024-01-15T10:44:52.022Z,1.00
2024-01-15T10:45:53.657Z,1.00
2024-01-15T10:46:57.808Z,1.00
2024-01-15T10:48:00.355Z,1.00
2024-01-15T10:49:02.745Z,1.00
2024-01-15T10:50:05.351Z,1.00
2024-01-15T10:51:11.890Z,1.00
2024-01-15T10:52:14.013Z,1.00
2024-01-15T10:53:17.494Z,1.00
2024-01-15T10:54:20.648Z,1.00
2024-01-15T10:55:24.212Z,1.00
2024-01-15T10:56:28.623Z,1.00
2024-01-15T10:57:31.032Z,1.00
2024-01-15T10:58:34.482Z,1.00
2024-01-15T10:59:37.237Z,1.00
2024-01-15T11:00:41.837Z,1.00
2024-01-15T11:01:44.701Z,1.00
2024-01-15T11:02:47.039Z,1.00
2024-01-15T11:03:49.108Z,1.00
2024-01-15T11:05:10.396Z,1.00
2024-01-15T11:06:22.531Z,1.00
2024-01-15T11:07:28.837Z,1.00
2024-01-15T11:08:34.097Z,1.00
2024-01-15T11:09:36.377Z,1.00
2024-01-15T11:10:47.933Z,1.00
2024-01-15T11:11:54.302Z,1.00
2024-01-15T11:12:56.497Z,1.00
2024-01-15T11:13:58.312Z,1.00
2024-01-15T11:15:10.495Z,1.00
2024-01-15T11:16:13.332Z,1.00
2024-01-15T11:17:15.833Z,1.00
2024-01-15T11:18:17.623Z,1.00
2024-01-15T11:19:20.146Z,1.00
2024-01-15T11:20:21.886Z,1.00
2024-01-15T11:21:24.951Z,1.00
2024-01-15T11:22:32.733Z,1.00
2024-01-15T11:23:43.641Z,1.00
2024-01-15T11:24:45.443Z,1.00
2024-01-15T11:25:47.120Z,1.00
2024-01-15T11:26:49.096Z,1.00
2024-01-15T11:27:54.843Z,1.00
2024-01-15T11:28:57.998Z,1.00
2024-01-15T11:30:10.352Z,1.00
2024-01-15T11:31:18.201Z,1.00
2024-01-15T11:32:25.316Z,1.00
2024-01-15T11:33:36.325Z,99.90
2024-01-15T11:34:56.244Z,99.90
2024-01-15T11:35:58.078Z,99.90
2024-01-15T11:37:03.535Z,99.90
2024-01-15T11:38:06.560Z,99.90
2024-01-15T11:39:33.391Z,99.90
2024-01-15T11:40:35.522Z,99.90
2024-01-15T11:41:37.563Z,99.90
2024-01-15T11:42:39.676Z,99.90
2024-01-15T11:43:41.473Z,99.90
2024-01-15T11:44:43.221Z,99.90
2024-01-15T11:45:45.622Z,99.90
2024-01-15T11:46:57.253Z,99.90
2024-01-15T11:48:13.106Z,99.90
2024-01-15T11:49:48.389Z,1.00
2024-01-15T11:50:51.555Z,1.00
2024-01-15T11:51:56.508Z,1.00
2024-01-15T11:53:09.404Z,1.00
2024-01-15T11:54:13.433Z,1.00
2024-01-15T11:55:26.692Z,1.00
2024-01-15T11:56:28.718Z,1.00
2024-01-15T11:57:51.396Z,1.00
2024-01-15T11:58:53.229Z,1.00
2024-01-15T11:59:55.300Z,1.00
2024-01-15T12:00:57.256Z,1.00
2024-01-15T12:01:59.068Z,1.00
2024-01-15T12:03:03.051Z,1.00
2024-01-15T12:04:05.044Z,1.00
2024-01-15T12:05:08.691Z,1.00
2024-01-15T12:06:11.514Z,1.00
2024-01-15T12:07:13.479Z,1.00
2024-01-15T12:08:15.118Z,1.00
2024-01-15T12:09:20.650Z,1.00
2024-01-15T12:10:22.797Z,1.00
2024-01-15T12:11:27.007Z,1.00
2024-01-15T12:13:11.319Z,1.00
2024-01-15T12:14:13.789Z,1.00
2024-01-15T12:15:16.211Z,1.00
2024-01-15T12:16:17.974Z,1.00
2024-01-15T12:17:19.702Z,1.00
2024-01-15T12:18:21.692Z,1.00
2024-01-15T12:19:24.147Z,1.00
2024-01-15T12:20:27.246Z,1.00
2024-01-15T12:21:36.612Z,1.00
2024-01-15T12:22:49.779Z,1.00
2024-01-15T12:23:59.881Z,1.00
2024-01-15T12:25:01.539Z,1.00
2024-01-15T12:26:03.667Z,1.00
2024-01-15T12:29:09.137Z,1.00
2024-01-15T12:30:14.745Z,1.00
2024-01-15T12:31:16.717Z,99.90
2024-01-15T12:32:20.189Z,99.90
2024-01-15T12:33:22.192Z,99.90
2024-01-15T12:34:24.042Z,99.90
2024-01-15T12:35:28.494Z,99.90
2024-01-15T12:39:51.807Z,99.90
2024-01-15T12:49:31.159Z,1.00
2024-01-15T12:57:32.437Z,99.90
2024-01-15T12:58:34.129Z,1.00
2024-01-15T12:59:35.831Z,1.00
2024-01-15T13:00:37.569Z,1.00
2024-01-15T13:01:40.133Z,99.90
2024-01-15T13:02:43.576Z,1.00
2024-01-15T13:03:45.906Z,99.90
2024-01-15T13:04:47.789Z,1.00
2024-01-15T13:05:50.320Z,1.00
2024-01-15T13:06:52.502Z,1.00
2024-01-15T13:07:54.294Z,1.00
2024-01-15T13:08:55.955Z,35.70
2024-01-15T13:09:57.594Z,1.00
2024-01-15T13:10:59.434Z,94.90
2024-01-15T13:12:01.176Z,1.00
2024-01-15T13:13:03.322Z,1.00
2024-01-15T13:14:05.095Z,1.00
2024-01-15T13:15:12.767Z,1.00
2024-01-15T13:16:14.693Z,1.00
2024-01-15T13:17:16.418Z,99.90
2024-01-15T13:18:19.125Z,1.00
2024-01-15T13:19:23.058Z,1.00
2024-01-15T13:20:24.905Z,1.00
2024-01-15T13:21:26.535Z,1.00
2024-01-15T13:22:33.211Z,99.90
2024-01-15T13:23:35.083Z,1.00
2024-01-15T13:24:37.374Z,99.90
2024-01-15T13:25:39.437Z,99.90
2024-01-15T13:26:41.515Z,99.90
2024-01-15T13:27:43.378Z,1.00
2024-01-15T13:28:45.385Z,99.90
2024-01-15T13:29:47.123Z,99.90
2024-01-15T13:30:48.840Z,1.00
2024-01-15T13:31:50.701Z,1.00
2024-01-15T13:32:52.439Z,1.00
2024-01-15T13:33:54.280Z,1.00
2024-01-15T13:35:00.798Z,1.00
2024-01-15T13:36:03.748Z,1.00
2024-01-15T13:37:05.564Z,1.00
2024-01-15T13:38:07.214Z,1.00
2024-01-15T13:39:11.900Z,1.00
2024-01-15T13:40:17.994Z,99.90
2024-01-15T13:41:23.286Z,1.00
2024-01-15T13:42:25.099Z,1.00
2024-01-15T13:43:28.117Z,1.00
2024-01-15T13:44:29.999Z,1.00
2024-01-15T13:45:31.733Z,99.90
2024-01-15T13:46:34.862Z,1.00
2024-01-15T13:47:36.564Z,1.00
2024-01-15T13:48:38.790Z,1.00
2024-01-15T13:49:40.666Z,1.00
2024-01-15T13:50:42.352Z,1.00
2024-01-15T13:51:44.081Z,1.00
2024-01-15T13:52:45.730Z,99.90
2024-01-15T13:53:47.388Z,1.00
2024-01-15T13:54:50.701Z,99.90
2024-01-15T13:55:52.966Z,1.00
2024-01-15T13:56:54.592Z,1.00
2024-01-15T13:57:56.537Z,1.00
2024-01-15T13:58:59.370Z,1.00
2024-01-15T14:00:01.222Z,1.00
2024-01-15T14:01:04.958Z,1.00
2024-01-15T14:02:06.603Z,1.00
2024-01-15T14:03:08.286Z,99.90
2024-01-15T14:04:09.984Z,99.90
2024-01-15T14:05:14.187Z,99.90
2024-01-15T14:06:15.923Z,1.00
2024-01-15T14:07:17.907Z,99.90
2024-01-15T14:08:20.827Z,99.90
2024-01-15T14:09:22.981Z,99.90
2024-01-15T14:10:29.372Z,99.90
2024-01-15T14:11:31.512Z,99.90
2024-01-15T14:12:33.371Z,1.00
2024-01-15T14:13:35.093Z,99.90
2024-01-15T14:14:36.790Z,99.90
2024-01-15T14:15:38.533Z,99.90
2024-01-15T14:16:40.275Z,99.90
2024-01-15T14:17:42.006Z,64.90
2024-01-15T14:18:43.857Z,1.00
2024-01-15T14:19:45.659Z,99.90
2024-01-15T14:20:47.524Z,1.00
2024-01-15T14:21:49.510Z,1.00
2024-01-15T14:22:51.325Z,1.00
2024-01-15T14:23:53.076Z,1.00
2024-01-15T14:24:55.330Z,1.00
2024-01-15T14:25:57.745Z,1.00
2024-01-15T14:26:59.701Z,1.00
2024-01-15T14:28:01.376Z,1.00
2024-01-15T14:29:03.033Z,1.00
2024-01-15T14:30:06.968Z,1.00
2024-01-15T14:31:08.858Z,1.00
2024-01-15T14:32:10.544Z,1.00
2024-01-15T14:33:12.248Z,1.00
2024-01-15T14:34:14.002Z,1.00
2024-01-15T14:35:15.869Z,39.60
2024-01-15T14:36:17.846Z,99.90
2024-01-15T14:37:19.718Z,1.00